createdAt,value
2022-10-03T16:32:50.317Z,22.49
2022-10-03T16:35:37.360Z,22.67
2022-10-03T16:38:17.920Z,22.78
2022-10-03T16:40:52.444Z,22.83
2022-10-03T16:43:19.590Z,22.78
2022-10-03T16:45:46.991Z,22.84
2022-10-03T16:48:38.574Z,22.90
2022-10-03T16:51:09.820Z,22.95
2022-10-03T16:53:37.275Z,23.00
2022-10-03T16:56:07.292Z,23.06
2022-10-03T16:58:39.667Z,23.08
2022-10-03T17:01:26.756Z,23.11
2022-10-03T17:03:59.940Z,23.12
2022-10-03T17:06:31.731Z,23.14
2022-10-03T17:09:01.228Z,23.16
2022-10-03T17:11:29.048Z,23.18
2022-10-03T17:14:00.156Z,23.23
2022-10-03T17:16:27.970Z,23.24
2022-10-03T17:19:01.199Z,23.25
2022-10-03T17:21:29.602Z,23.27
2022-10-03T17:24:07.378Z,23.30
2022-10-03T17:26:35.754Z,23.34
2022-10-03T17:29:05.772Z,23.37
2022-10-03T17:31:46.436Z,23.37
2022-10-03T17:34:21.250Z,23.36
2022-10-03T17:37:06.736Z,23.39
2022-10-03T17:39:40.229Z,23.40
2022-10-03T17:42:29.192Z,23.41
2022-10-03T17:45:02.382Z,23.42
2022-10-03T17:47:56.054Z,23.43
2022-10-03T17:50:48.919Z,23.43
2022-10-03T17:53:20.037Z,23.45
2022-10-03T17:55:46.981Z,23.45
2022-10-03T17:58:19.301Z,23.46
2022-10-03T18:00:46.256Z,23.49
2022-10-03T18:03:33.013Z,23.44
2022-10-03T18:06:03.341Z,23.51
2022-10-03T18:08:31.929Z,23.60
2022-10-03T18:11:00.183Z,23.71
2022-10-03T18:13:42.548Z,23.71
2022-10-03T18:16:37.609Z,23.66
2022-10-03T18:19:40.085Z,23.63
2022-10-03T18:22:17.166Z,23.62
2022-10-03T18:24:44.014Z,23.63
2022-10-03T18:27:51.679Z,23.63
2022-10-03T18:30:52.354Z,23.60
2022-10-03T18:35:22.741Z,23.64
2022-10-03T18:37:55.479Z,23.53
2022-10-03T18:40:28.059Z,23.52
2022-10-03T18:46:21.611Z,22.91
2022-10-03T18:49:30.132Z,23.76
2022-10-03T18:51:58.521Z,23.88
2022-10-03T18:54:56.514Z,23.77
2022-10-03T18:57:27.249Z,23.76
2022-10-03T19:00:21.638Z,23.75
2022-10-03T19:02:55.954Z,23.74
2022-10-03T19:05:44.199Z,23.71
2022-10-03T19:08:12.682Z,23.70
2022-10-03T19:10:52.221Z,23.71
2022-10-03T19:13:45.570Z,23.77
2022-10-03T19:16:24.676Z,23.88
2022-10-03T19:18:51.867Z,23.93
2022-10-03T19:21:20.169Z,23.92
2022-10-03T19:23:54.361Z,23.95
2022-10-03T19:26:24.582Z,24.00
2022-10-03T19:28:54.192Z,23.98
2022-10-03T19:31:36.247Z,23.92
2022-10-03T19:34:17.936Z,23.96
2022-10-03T19:36:44.884Z,24.02
2022-10-03T19:39:14.686Z,24.05
2022-10-03T19:41:53.965Z,24.04
2022-10-03T19:44:23.405Z,24.04
2022-10-03T19:46:59.287Z,24.00
2022-10-03T19:49:41.287Z,24.00
2022-10-03T19:52:16.428Z,24.05
2022-10-03T19:54:59.247Z,24.10
2022-10-03T19:57:38.274Z,24.13
2022-10-03T20:00:15.460Z,24.17
2022-10-03T20:02:43.927Z,24.17
2022-10-03T20:05:18.361Z,24.19
2022-10-03T20:08:17.054Z,24.19
2022-10-03T20:11:06.730Z,24.18
2022-10-03T20:13:33.675Z,24.16
2022-10-03T20:16:01.071Z,24.19
2022-10-03T20:18:34.734Z,24.22
2022-10-03T20:21:04.141Z,24.20
2022-10-03T20:23:32.413Z,24.22
2022-10-03T20:26:02.310Z,24.18
2022-10-03T20:28:41.348Z,24.17
2022-10-03T20:31:09.213Z,24.19
2022-10-03T20:36:39.230Z,23.25
2022-10-03T20:39:06.507Z,24.14
2022-10-03T20:41:40.040Z,24.28
2022-10-03T20:44:23.132Z,24.30
2022-10-03T20:46:54.890Z,24.33
2022-10-03T20:49:40.471Z,24.34
2022-10-03T20:52:08.440Z,24.39
2022-10-03T20:54:58.733Z,24.25
2022-10-03T20:57:57.061Z,24.16
2022-10-03T21:00:24.519Z,24.13
2022-10-03T21:02:56.794Z,24.17
2022-10-03T21:05:25.066Z,24.14
2022-10-03T21:08:21.504Z,24.05
2022-10-03T21:11:02.478Z,23.97
2022-10-03T21:13:36.386Z,23.94
2022-10-03T21:16:04.911Z,23.87
2022-10-03T21:18:37.202Z,23.81
2022-10-03T21:21:10.538Z,23.89
2022-10-03T21:24:17.113Z,23.95
2022-10-03T21:27:06.177Z,23.86
2022-10-03T21:29:35.063Z,23.87
2022-10-03T21:32:43.381Z,23.88
2022-10-03T21:35:30.295Z,23.88
2022-10-03T21:37:59.801Z,23.74
2022-10-03T21:40:38.728Z,23.72
2022-10-03T21:43:33.011Z,23.77
2022-10-03T21:46:24.749Z,23.75
2022-10-03T21:49:15.233Z,23.82
2022-10-03T21:52:00.510Z,23.86
2022-10-03T21:54:33.189Z,23.86
2022-10-03T21:57:14.473Z,23.87
2022-10-03T22:00:11.018Z,23.86
2022-10-03T22:02:46.865Z,23.87
2022-10-03T22:05:35.416Z,23.83
2022-10-03T22:08:35.746Z,23.79
2022-10-03T22:11:50.422Z,23.82
2022-10-03T22:14:21.655Z,23.87
2022-10-03T22:17:04.682Z,23.97
2022-10-03T22:19:53.024Z,23.92
2022-10-03T22:22:57.961Z,23.92
2022-10-03T22:25:30.745Z,23.91
2022-10-03T22:28:25.749Z,23.92
2022-10-03T22:31:13.726Z,23.93
2022-10-03T22:34:19.134Z,23.94
2022-10-03T22:36:46.386Z,23.94
2022-10-03T22:39:15.687Z,23.96
2022-10-03T22:41:44.232Z,23.95
2022-10-03T22:44:11.931Z,23.95
2022-10-03T22:46:40.963Z,23.98
2022-10-03T22:49:13.502Z,24.07
2022-10-03T22:51:41.360Z,24.21
2022-10-03T22:54:14.153Z,24.19
2022-10-03T22:56:46.728Z,24.17
2022-10-03T22:59:24.428Z,24.16
2022-10-03T23:01:54.644Z,24.18
2022-10-03T23:04:36.951Z,24.21
2022-10-03T23:07:16.088Z,24.23
2022-10-03T23:09:51.839Z,24.21
2022-10-03T23:12:19.193Z,24.20
2022-10-03T23:14:49.210Z,24.11
2022-10-03T23:17:46.979Z,24.12
2022-10-03T23:20:51.605Z,24.17
2022-10-03T23:23:28.588Z,24.17
2022-10-03T23:26:33.319Z,24.13
2022-10-03T23:29:06.857Z,24.14
2022-10-03T23:31:53.529Z,24.15
2022-10-03T23:34:38.803Z,24.18
2022-10-03T23:37:13.357Z,24.23
2022-10-03T23:39:55.731Z,24.21
2022-10-03T23:42:46.128Z,24.19
2022-10-03T23:45:15.428Z,24.19
2022-10-03T23:47:52.103Z,24.13
2022-10-03T23:50:22.529Z,24.04
2022-10-03T23:52:51.113Z,23.92
2022-10-03T23:55:22.916Z,23.86
2022-10-03T23:57:49.771Z,23.85
